createdAt,value
2022-12-09T00:00:08.457Z,1.39
2022-12-09T00:02:59.555Z,1.40
2022-12-09T00:05:28.263Z,1.43
2022-12-09T00:07:57.104Z,1.45
2022-12-09T00:10:26.296Z,1.48
2022-12-09T00:12:56.716Z,1.52
2022-12-09T00:15:25.329Z,1.54
2022-12-09T00:17:53.937Z,1.56
2022-12-09T00:20:22.437Z,1.57
2022-12-09T00:22:50.864Z,1.58
2022-12-09T00:25:19.399Z,1.57
2022-12-09T00:27:47.957Z,1.57
2022-12-09T00:30:16.563Z,1.52
2022-12-09T00:32:45.008Z,1.42
2022-12-09T00:35:14.177Z,1.33
2022-12-09T00:37:42.674Z,1.25
2022-12-09T00:40:11.929Z,1.16
2022-12-09T00:42:40.551Z,1.11
2022-12-09T00:45:09.356Z,1.16
2022-12-09T00:47:38.037Z,1.20
2022-12-09T00:50:07.635Z,1.22
2022-12-09T00:52:36.396Z,1.26
2022-12-09T00:55:05.405Z,1.32
2022-12-09T00:57:34.121Z,1.30
2022-12-09T01:00:02.773Z,1.32
2022-12-09T01:02:31.732Z,1.26
2022-12-09T01:05:00.736Z,1.20
2022-12-09T01:07:29.568Z,1.21
2022-12-09T01:09:58.096Z,1.23
2022-12-09T01:12:26.610Z,1.24
2022-12-09T01:14:55.133Z,1.29
2022-12-09T01:17:23.895Z,1.33
2022-12-09T01:19:52.619Z,1.39
2022-12-09T01:22:21.393Z,1.43
2022-12-09T01:24:50.325Z,1.47
2022-12-09T01:27:19.106Z,1.49
2022-12-09T01:29:47.725Z,1.51
2022-12-09T01:32:16.922Z,1.50
2022-12-09T01:34:45.593Z,1.50
2022-12-09T01:37:14.248Z,1.53
2022-12-09T01:39:42.654Z,1.56
2022-12-09T01:42:19.871Z,1.60
2022-12-09T01:45:22.488Z,1.66
2022-12-09T01:48:06.127Z,1.66
2022-12-09T01:50:37.990Z,1.61
2022-12-09T01:53:07.989Z,1.60
2022-12-09T01:55:42.690Z,1.58
2022-12-09T01:58:11.389Z,1.58
2022-12-09T02:00:40.589Z,1.61
2022-12-09T02:03:09.305Z,1.63
2022-12-09T02:05:38.444Z,1.66
2022-12-09T02:08:18.926Z,1.66
2022-12-09T02:11:20.365Z,1.62
2022-12-09T02:13:57.263Z,1.56
2022-12-09T02:16:34.775Z,1.54
2022-12-09T02:19:22.061Z,1.55
2022-12-09T02:21:59.403Z,1.57
2022-12-09T02:24:42.044Z,1.59
2022-12-09T02:27:20.735Z,1.62
2022-12-09T02:30:16.341Z,1.64
2022-12-09T02:33:18.202Z,1.64
2022-12-09T02:35:56.030Z,1.64
2022-12-09T02:38:28.288Z,1.64
2022-12-09T02:41:05.892Z,1.65
2022-12-09T02:43:43.693Z,1.67
2022-12-09T02:46:19.124Z,1.68
2022-12-09T02:48:55.927Z,1.68
2022-12-09T02:51:27.893Z,1.64
2022-12-09T02:54:03.891Z,1.64
2022-12-09T02:56:37.481Z,1.62
2022-12-09T02:59:05.913Z,1.62
2022-12-09T03:02:03.699Z,1.62
2022-12-09T03:04:32.927Z,1.64
2022-12-09T03:07:36.520Z,1.64
2022-12-09T03:10:30.457Z,1.64
2022-12-09T03:13:05.727Z,1.65
2022-12-09T03:15:37.802Z,1.64
2022-12-09T03:18:10.985Z,1.64
2022-12-09T03:20:42.265Z,1.63
2022-12-09T03:23:16.079Z,1.62
2022-12-09T03:25:47.137Z,1.63
2022-12-09T03:28:28.538Z,1.65
2022-12-09T03:31:00.381Z,1.61
2022-12-09T03:33:32.604Z,1.58
2022-12-09T03:36:09.046Z,1.54
2022-12-09T03:38:40.198Z,1.53
2022-12-09T03:41:30.125Z,1.56
2022-12-09T03:44:43.216Z,1.58
2022-12-09T03:47:12.112Z,1.60
2022-12-09T03:49:41.179Z,1.58
2022-12-09T03:52:42.618Z,1.57
2022-12-09T03:55:24.948Z,1.53
2022-12-09T03:57:58.748Z,1.51
2022-12-09T04:00:27.771Z,1.48
2022-12-09T04:02:56.482Z,1.47
2022-12-09T04:05:25.218Z,1.41
2022-12-09T04:07:53.915Z,1.39
2022-12-09T04:10:22.505Z,1.37
2022-12-09T04:12:51.301Z,1.31
2022-12-09T04:15:20.029Z,1.28
2022-12-09T04:17:48.652Z,1.23
2022-12-09T04:20:18.024Z,1.09
2022-12-09T04:22:46.895Z,0.99
2022-12-09T04:25:15.695Z,0.90
2022-12-09T04:27:44.322Z,0.79
2022-12-09T04:30:13.575Z,0.69
2022-12-09T04:32:42.567Z,0.63
2022-12-09T04:35:11.308Z,0.62
2022-12-09T04:37:39.771Z,0.66
2022-12-09T04:40:09.179Z,0.71
2022-12-09T04:42:37.974Z,0.71
2022-12-09T04:45:10.619Z,0.72
2022-12-09T04:47:39.896Z,0.75
2022-12-09T04:50:09.121Z,0.75
2022-12-09T04:52:37.804Z,0.77
2022-12-09T04:55:10.661Z,0.79
2022-12-09T04:57:39.339Z,0.78
2022-12-09T05:00:09.281Z,0.76
2022-12-09T05:02:38.353Z,0.73
2022-12-09T05:05:07.157Z,0.70
2022-12-09T05:07:36.558Z,0.64
2022-12-09T05:10:06.622Z,0.63
2022-12-09T05:12:35.644Z,0.67
2022-12-09T05:15:04.598Z,0.68
2022-12-09T05:17:33.111Z,0.64
2022-12-09T05:20:01.633Z,0.66
2022-12-09T05:22:30.389Z,0.73
2022-12-09T05:24:58.978Z,0.79
2022-12-09T05:27:28.286Z,0.83
2022-12-09T05:29:57.110Z,0.86
2022-12-09T05:32:26.035Z,0.86
2022-12-09T05:34:54.923Z,0.77
2022-12-09T05:37:23.493Z,0.65
2022-12-09T05:39:51.998Z,0.58
2022-12-09T05:42:20.563Z,0.52
2022-12-09T05:44:49.310Z,0.53
2022-12-09T05:47:17.950Z,0.50
2022-12-09T05:49:46.937Z,0.51
2022-12-09T05:52:15.730Z,0.57
2022-12-09T05:54:47.698Z,0.57
2022-12-09T05:57:16.461Z,0.57
2022-12-09T05:59:45.427Z,0.59
2022-12-09T06:02:14.027Z,0.63
2022-12-09T06:04:42.868Z,0.63
2022-12-09T06:07:12.375Z,0.60
2022-12-09T06:09:41.916Z,0.60
2022-12-09T06:12:11.248Z,0.61
2022-12-09T06:14:39.950Z,0.58
2022-12-09T06:17:08.935Z,0.52
2022-12-09T06:19:37.749Z,0.53
2022-12-09T06:22:06.607Z,0.53
2022-12-09T06:24:36.502Z,0.53
2022-12-09T06:27:05.307Z,0.56
2022-12-09T06:29:33.816Z,0.59
2022-12-09T06:32:02.560Z,0.62
2022-12-09T06:34:31.489Z,0.59
2022-12-09T06:37:00.139Z,0.65
2022-12-09T06:39:29.125Z,0.74
2022-12-09T06:41:57.865Z,0.80
2022-12-09T06:44:26.878Z,0.81
2022-12-09T06:46:55.606Z,0.80
2022-12-09T06:49:24.948Z,0.72
2022-12-09T06:51:53.529Z,0.66
2022-12-09T06:54:23.675Z,0.63
2022-12-09T06:56:52.139Z,0.56
2022-12-09T06:59:21.120Z,0.50
2022-12-09T07:01:49.852Z,0.48
2022-12-09T07:04:18.859Z,0.50
2022-12-09T07:06:48.028Z,0.60
2022-12-09T07:09:19.825Z,0.69
2022-12-09T07:11:49.812Z,0.75
2022-12-09T07:14:19.534Z,0.69
2022-12-09T07:16:48.582Z,0.63
2022-12-09T07:19:20.400Z,0.61
2022-12-09T07:21:51.576Z,0.59
2022-12-09T07:24:21.267Z,0.55
2022-12-09T07:26:50.835Z,0.52
2022-12-09T07:29:19.574Z,0.47
2022-12-09T07:31:48.738Z,0.46
2022-12-09T07:34:17.618Z,0.43
2022-12-09T07:36:46.714Z,0.48
2022-12-09T07:39:18.562Z,0.45
2022-12-09T07:41:51.530Z,0.42
2022-12-09T07:44:19.928Z,0.42
2022-12-09T07:46:48.733Z,0.39
2022-12-09T07:49:18.331Z,0.46
2022-12-09T07:51:47.702Z,0.60
2022-12-09T07:54:18.316Z,0.70
2022-12-09T07:56:51.284Z,0.74
2022-12-09T07:59:20.407Z,0.77
2022-12-09T08:01:49.270Z,0.80
2022-12-09T08:04:18.061Z,0.83
2022-12-09T08:06:47.199Z,0.80
2022-12-09T08:09:16.619Z,0.81
2022-12-09T08:11:45.426Z,0.81
2022-12-09T08:14:15.012Z,0.81
2022-12-09T08:16:43.941Z,0.80
2022-12-09T08:19:13.717Z,0.79
2022-12-09T08:21:43.335Z,0.79
2022-12-09T08:24:13.613Z,0.76
2022-12-09T08:26:43.298Z,0.69
2022-12-09T08:29:14.326Z,0.62
2022-12-09T08:31:44.286Z,0.67
2022-12-09T08:34:14.699Z,0.72
2022-12-09T08:36:45.076Z,0.76
2022-12-09T08:39:14.747Z,0.77
2022-12-09T08:41:44.664Z,0.78
2022-12-09T08:44:21.101Z,0.85
2022-12-09T08:46:52.030Z,0.88
2022-12-09T08:49:23.531Z,0.91
2022-12-09T08:51:53.859Z,0.87
2022-12-09T08:54:25.759Z,0.80
2022-12-09T08:56:56.237Z,0.71
2022-12-09T08:59:25.400Z,0.69
2022-12-09T09:01:54.766Z,0.72
2022-12-09T09:04:24.338Z,0.73
2022-12-09T09:06:53.721Z,0.74
2022-12-09T09:09:23.472Z,0.80
2022-12-09T09:11:52.629Z,0.90
2022-12-09T09:14:21.925Z,1.00
2022-12-09T09:16:50.811Z,1.00
2022-12-09T09:19:22.773Z,0.88
2022-12-09T09:21:51.909Z,0.76
2022-12-09T09:24:23.083Z,0.64
2022-12-09T09:26:53.904Z,0.64
2022-12-09T09:29:24.115Z,0.64
2022-12-09T09:31:56.538Z,0.66
2022-12-09T09:34:27.844Z,0.66
2022-12-09T09:36:57.750Z,0.66
2022-12-09T09:39:26.574Z,0.69
2022-12-09T09:42:07.777Z,0.74
2022-12-09T09:44:46.585Z,0.80
2022-12-09T09:47:18.881Z,0.75
2022-12-09T09:49:55.634Z,0.76
2022-12-09T09:52:27.477Z,0.85
2022-12-09T09:55:47.447Z,0.98
2022-12-09T09:58:34.093Z,0.93
2022-12-09T10:01:05.140Z,0.99
2022-12-09T10:03:37.037Z,0.97
2022-12-09T10:06:32.236Z,1.05
2022-12-09T10:09:10.768Z,1.09
2022-12-09T10:12:26.432Z,1.11
2022-12-09T10:15:05.400Z,1.26
2022-12-09T10:17:51.317Z,1.29
2022-12-09T10:20:23.658Z,1.18
2022-12-09T10:23:12.928Z,1.17
2022-12-09T10:25:49.933Z,1.21
2022-12-09T10:28:24.683Z,1.11
2022-12-09T10:30:55.608Z,1.09
2022-12-09T10:33:39.860Z,1.10
2022-12-09T10:36:23.545Z,1.16
2022-12-09T10:38:52.519Z,1.23
2022-12-09T10:41:59.098Z,1.33
2022-12-09T10:44:29.703Z,1.39
2022-12-09T10:47:21.626Z,1.40
2022-12-09T10:49:53.469Z,1.50
2022-12-09T10:52:30.355Z,1.62
2022-12-09T10:54:59.617Z,1.69
2022-12-09T10:57:31.253Z,1.81
2022-12-09T11:00:27.096Z,1.91
2022-12-09T11:02:58.419Z,1.97
2022-12-09T11:05:30.296Z,1.99
2022-12-09T11:07:59.984Z,2.12
2022-12-09T11:10:31.108Z,2.17
2022-12-09T11:13:15.955Z,2.15
2022-12-09T11:15:59.678Z,2.13
2022-12-09T11:18:33.099Z,2.08
2022-12-09T11:21:05.836Z,2.04
2022-12-09T11:23:35.978Z,1.96
2022-12-09T11:26:14.990Z,1.95
2022-12-09T11:28:44.009Z,2.01
2022-12-09T11:31:31.745Z,1.96
2022-12-09T11:34:26.313Z,1.96
2022-12-09T11:36:59.392Z,2.00
2022-12-09T11:39:35.962Z,2.04
2022-12-09T11:42:23.464Z,2.08
2022-12-09T11:44:59.961Z,2.12
2022-12-09T11:48:13.480Z,2.13
2022-12-09T11:50:32.918Z,2.21
2022-12-09T11:53:13.794Z,2.23
2022-12-09T11:55:53.790Z,2.23
2022-12-09T11:58:28.386Z,2.23
2022-12-09T12:01:04.522Z,2.20
2022-12-09T12:03:52.328Z,2.32
2022-12-09T12:06:29.300Z,2.40
2022-12-09T12:09:12.434Z,2.46
2022-12-09T12:11:47.575Z,2.36
2022-12-09T12:14:21.438Z,2.29
2022-12-09T12:16:57.758Z,2.22
2022-12-09T12:19:35.390Z,2.25
2022-12-09T12:22:22.665Z,2.31
2022-12-09T12:25:21.180Z,2.38
2022-12-09T12:28:17.897Z,2.37
2022-12-09T12:30:59.369Z,2.28
2022-12-09T12:36:53.471Z,2.10
2022-12-09T12:40:05.018Z,2.03
2022-12-09T12:42:39.754Z,1.97
2022-12-09T12:45:59.654Z,1.81
2022-12-09T12:48:38.732Z,1.69
2022-12-09T12:51:23.624Z,1.67
2022-12-09T12:54:16.006Z,1.54
2022-12-09T12:57:11.576Z,1.35
2022-12-09T13:00:04.241Z,1.26
2022-12-09T13:03:19.786Z,1.24
2022-12-09T13:05:51.688Z,1.25
2022-12-09T13:08:33.070Z,1.29
2022-12-09T13:11:09.002Z,1.31
2022-12-09T13:13:48.870Z,1.29
2022-12-09T13:16:25.778Z,1.23
2022-12-09T13:19:07.400Z,1.14
2022-12-09T13:21:36.885Z,1.12
2022-12-09T13:24:21.930Z,1.09
2022-12-09T13:27:00.987Z,1.05
2022-12-09T13:29:38.330Z,0.98
2022-12-09T13:32:40.940Z,0.87
2022-12-09T13:35:27.735Z,0.73
2022-12-09T13:37:58.561Z,0.62
2022-12-09T13:40:39.542Z,0.53
2022-12-09T13:43:15.319Z,0.44
2022-12-09T13:45:44.076Z,0.36
2022-12-09T13:48:17.092Z,0.29
2022-12-09T13:50:52.006Z,0.25
2022-12-09T13:53:20.547Z,0.19
2022-12-09T13:56:15.135Z,0.20
2022-12-09T13:59:21.788Z,0.20
2022-12-09T14:02:15.900Z,0.16
2022-12-09T14:04:52.867Z,0.16
2022-12-09T14:07:33.896Z,0.15
2022-12-09T14:10:03.430Z,0.22
2022-12-09T14:12:33.091Z,0.26
2022-12-09T14:15:03.101Z,0.23
2022-12-09T14:17:31.498Z,0.19
2022-12-09T14:20:23.174Z,0.18
2022-12-09T14:23:07.494Z,0.14
2022-12-09T14:25:36.041Z,0.11
2022-12-09T14:28:10.495Z,0.08
2022-12-09T14:30:55.956Z,0.00
2022-12-09T14:33:35.174Z,-0.03
2022-12-09T14:36:06.983Z,0.01
2022-12-09T14:39:15.730Z,0.02
2022-12-09T14:42:04.589Z,-0.07
2022-12-09T14:44:40.835Z,-0.15
2022-12-09T14:47:30.187Z,-0.25
2022-12-09T14:50:12.676Z,-0.32
2022-12-09T14:52:55.121Z,-0.39
2022-12-09T14:55:26.236Z,-0.45
2022-12-09T14:57:58.491Z,-0.52
2022-12-09T15:00:35.212Z,-0.57
2022-12-09T15:03:32.048Z,-0.62
2022-12-09T15:06:11.279Z,-0.65
2022-12-09T15:08:43.379Z,-0.65
2022-12-09T15:11:14.520Z,-0.66
2022-12-09T15:13:47.345Z,-0.72
2022-12-09T15:16:21.094Z,-0.84
2022-12-09T15:18:51.215Z,-0.93
2022-12-09T15:21:29.113Z,-1.02
2022-12-09T15:24:00.333Z,-1.07
2022-12-09T15:26:33.115Z,-1.15
2022-12-09T15:29:05.558Z,-1.22
2022-12-09T15:31:35.228Z,-1.27
2022-12-09T15:34:20.442Z,-1.29
2022-12-09T15:37:06.464Z,-1.30
2022-12-09T15:39:45.161Z,-1.29
2022-12-09T15:42:18.987Z,-1.28
2022-12-09T15:45:01.295Z,-1.27
2022-12-09T15:47:42.291Z,-1.28
2022-12-09T15:50:24.779Z,-1.26
2022-12-09T15:53:03.782Z,-1.27
2022-12-09T15:56:08.085Z,-1.29
2022-12-09T15:58:52.219Z,-1.32
2022-12-09T16:01:30.469Z,-1.33
2022-12-09T16:04:03.653Z,-1.35
2022-12-09T16:06:36.352Z,-1.35
2022-12-09T16:09:21.662Z,-1.38
2022-12-09T16:11:55.427Z,-1.40
2022-12-09T16:14:25.037Z,-1.43
2022-12-09T16:16:58.965Z,-1.44
2022-12-09T16:19:36.634Z,-1.47
2022-12-09T16:22:12.092Z,-1.49
2022-12-09T16:25:14.186Z,-1.50
2022-12-09T16:27:49.262Z,-1.48
2022-12-09T16:30:21.817Z,-1.49
2022-12-09T16:32:57.924Z,-1.46
2022-12-09T16:35:34.219Z,-1.50
2022-12-09T16:38:10.360Z,-1.52
2022-12-09T16:40:46.424Z,-1.55
2022-12-09T16:43:16.867Z,-1.56
2022-12-09T16:45:51.105Z,-1.56
2022-12-09T16:48:22.751Z,-1.56
2022-12-09T16:51:20.469Z,-1.52
2022-12-09T16:53:55.132Z,-1.51
2022-12-09T16:56:27.799Z,-1.49
2022-12-09T16:59:00.076Z,-1.48
2022-12-09T17:01:36.161Z,-1.50
2022-12-09T17:04:14.423Z,-1.51
2022-12-09T17:06:45.030Z,-1.49
2022-12-09T17:09:14.608Z,-1.50
2022-12-09T17:11:49.265Z,-1.53
2022-12-09T17:14:19.721Z,-1.54
2022-12-09T17:16:50.390Z,-1.54
2022-12-09T17:19:21.680Z,-1.59
2022-12-09T17:21:52.897Z,-1.60
2022-12-09T17:24:22.590Z,-1.59
2022-12-09T17:26:53.888Z,-1.59
2022-12-09T17:29:23.918Z,-1.59
2022-12-09T17:31:54.984Z,-1.58
2022-12-09T17:34:26.869Z,-1.58
2022-12-09T17:36:59.256Z,-1.58
2022-12-09T17:39:29.572Z,-1.57
2022-12-09T17:42:01.249Z,-1.53
2022-12-09T17:44:36.521Z,-1.46
2022-12-09T17:47:06.648Z,-1.41
2022-12-09T17:49:36.128Z,-1.35
2022-12-09T17:52:05.396Z,-1.29
2022-12-09T17:54:34.545Z,-1.26
2022-12-09T17:57:05.475Z,-1.23
2022-12-09T17:59:34.391Z,-1.22
2022-12-09T18:02:05.520Z,-1.22
2022-12-09T18:04:34.522Z,-1.20
2022-12-09T18:07:04.133Z,-1.16
2022-12-09T18:09:33.077Z,-1.12
2022-12-09T18:12:01.936Z,-1.10
2022-12-09T18:14:31.054Z,-1.09
2022-12-09T18:17:01.744Z,-1.08
2022-12-09T18:19:30.788Z,-1.04
2022-12-09T18:22:00.370Z,-1.01
2022-12-09T18:24:32.455Z,-0.98
2022-12-09T18:27:01.983Z,-0.97
2022-12-09T18:29:31.783Z,-0.91
2022-12-09T18:32:03.006Z,-0.88
2022-12-09T18:34:33.848Z,-0.86
2022-12-09T18:37:03.945Z,-0.83
2022-12-09T18:39:37.764Z,-0.83
2022-12-09T18:42:07.093Z,-0.82
2022-12-09T18:44:35.874Z,-0.83
2022-12-09T18:47:04.664Z,-0.81
2022-12-09T18:49:33.861Z,-0.83
2022-12-09T18:52:04.527Z,-0.83
2022-12-09T18:54:34.411Z,-0.85
2022-12-09T18:57:04.690Z,-0.85
2022-12-09T18:59:34.067Z,-0.81
2022-12-09T19:02:03.654Z,-0.79
2022-12-09T19:04:33.621Z,-0.79
2022-12-09T19:07:04.172Z,-0.80
2022-12-09T19:09:36.620Z,-0.80
2022-12-09T19:12:44.821Z,-0.80
2022-12-09T19:15:00.344Z,-0.78
2022-12-09T19:17:31.595Z,-0.77
2022-12-09T19:20:01.217Z,-0.73
2022-12-09T19:22:31.209Z,-0.72
2022-12-09T19:25:08.319Z,-0.70
2022-12-09T19:27:41.013Z,-0.70
2022-12-09T19:30:13.321Z,-0.68
2022-12-09T19:32:58.239Z,-0.64
2022-12-09T19:35:28.770Z,-0.61
2022-12-09T19:38:01.792Z,-0.63
2022-12-09T19:40:33.370Z,-0.66
2022-12-09T19:43:04.838Z,-0.66
2022-12-09T19:45:36.499Z,-0.65
2022-12-09T19:48:07.916Z,-0.62
2022-12-09T19:50:38.184Z,-0.59
2022-12-09T19:53:08.972Z,-0.55
2022-12-09T19:55:41.737Z,-0.51
2022-12-09T19:58:13.675Z,-0.50
2022-12-09T20:00:45.379Z,-0.51
2022-12-09T20:03:16.715Z,-0.50
2022-12-09T20:05:55.223Z,-0.46
2022-12-09T20:08:28.520Z,-0.47
2022-12-09T20:10:58.077Z,-0.46
2022-12-09T20:13:31.799Z,-0.42
2022-12-09T20:16:07.838Z,-0.38
2022-12-09T20:18:38.909Z,-0.35
2022-12-09T20:21:13.716Z,-0.34
2022-12-09T20:23:45.431Z,-0.35
2022-12-09T20:26:21.273Z,-0.36
2022-12-09T20:28:54.230Z,-0.33
2022-12-09T20:31:31.859Z,-0.32
2022-12-09T20:34:05.186Z,-0.31
2022-12-09T20:36:38.682Z,-0.31
2022-12-09T20:39:13.081Z,-0.29
2022-12-09T20:41:43.828Z,-0.29
2022-12-09T20:44:14.748Z,-0.32
2022-12-09T20:46:50.131Z,-0.29
2022-12-09T20:49:27.176Z,-0.28
2022-12-09T20:51:57.520Z,-0.27
2022-12-09T20:54:27.585Z,-0.24
2022-12-09T20:56:57.538Z,-0.22
2022-12-09T20:59:27.343Z,-0.21
2022-12-09T21:01:57.653Z,-0.20
2022-12-09T21:04:29.552Z,-0.21
2022-12-09T21:06:59.209Z,-0.22
2022-12-09T21:09:30.399Z,-0.19
2022-12-09T21:12:03.569Z,-0.16
2022-12-09T21:14:37.134Z,-0.15
2022-12-09T21:17:07.929Z,-0.15
2022-12-09T21:19:39.227Z,-0.13
2022-12-09T21:22:09.139Z,-0.11
2022-12-09T21:24:39.158Z,-0.10
2022-12-09T21:27:12.473Z,-0.10
2022-12-09T21:29:42.233Z,-0.09
2022-12-09T21:32:11.845Z,-0.12
2022-12-09T21:34:42.054Z,-0.11
2022-12-09T21:37:11.801Z,-0.07
2022-12-09T21:39:41.351Z,-0.03
2022-12-09T21:42:10.775Z,-0.03
2022-12-09T21:44:43.056Z,-0.05
2022-12-09T21:47:13.865Z,-0.04
2022-12-09T21:49:42.245Z,-0.01
2022-12-09T21:52:13.528Z,0.00
2022-12-09T21:54:41.890Z,0.02
2022-12-09T21:57:11.728Z,0.02
2022-12-09T21:59:41.057Z,0.04
2022-12-09T22:02:11.506Z,0.02
2022-12-09T22:04:40.628Z,0.03
2022-12-09T22:07:09.252Z,0.04
2022-12-09T22:09:38.774Z,0.03
2022-12-09T22:12:07.587Z,0.03
2022-12-09T22:14:37.398Z,0.07
2022-12-09T22:17:05.929Z,0.09
2022-12-09T22:19:35.134Z,0.13
2022-12-09T22:22:08.897Z,0.11
2022-12-09T22:24:38.092Z,0.11
2022-12-09T22:27:06.641Z,0.11
2022-12-09T22:29:34.905Z,0.10
2022-12-09T22:32:03.193Z,0.11
2022-12-09T22:34:31.470Z,0.09
2022-12-09T22:37:14.909Z,0.07
2022-12-09T22:39:48.208Z,0.03
2022-12-09T22:42:16.644Z,0.02
2022-12-09T22:44:44.959Z,-0.01
2022-12-09T22:47:13.480Z,0.01
2022-12-09T22:49:42.037Z,0.01
2022-12-09T22:52:10.480Z,0.01
2022-12-09T22:54:38.975Z,0.06
2022-12-09T22:57:13.450Z,0.06
2022-12-09T22:59:43.168Z,0.09
2022-12-09T23:02:11.943Z,0.12
2022-12-09T23:04:40.588Z,0.11
2022-12-09T23:07:09.682Z,0.10
2022-12-09T23:09:38.138Z,0.14
2022-12-09T23:12:06.762Z,0.14
2022-12-09T23:14:35.286Z,0.16
2022-12-09T23:17:03.670Z,0.19
2022-12-09T23:19:32.113Z,0.24
2022-12-09T23:22:00.500Z,0.27
2022-12-09T23:24:28.941Z,0.23
2022-12-09T23:26:57.387Z,0.20
2022-12-09T23:29:25.959Z,0.19
2022-12-09T23:31:54.444Z,0.18
2022-12-09T23:34:23.898Z,0.16
2022-12-09T23:36:52.360Z,0.16
2022-12-09T23:39:20.788Z,0.16
2022-12-09T23:41:49.337Z,0.18
2022-12-09T23:44:19.521Z,0.21
2022-12-09T23:46:49.115Z,0.19
2022-12-09T23:49:18.100Z,0.14
2022-12-09T23:51:47.129Z,0.10
2022-12-09T23:54:18.206Z,0.07
2022-12-09T23:56:51.847Z,0.08
2022-12-09T23:59:22.262Z,0.06
